• Join FlightAware (Why Join?)
  • Login
  • US Flag 
01:34AM EDT


 

Airport Tracker/Info


-or-


 

Live Flight TrackerFlight Track Log ✈ N498QS ✈ 14-Jul-2013 ✈ KLCI - KMDW

Flight Track Log - Related Links

Times and Time Zones

All times are in EDT time to prevent confusion due to time zone crossing. See the N498QS flight status page for this flight to view local times or setup timezone preferences in your user account.

Time Position Orientation Groundspeed Altitude Reporting Facility
EDT Latitude Longitude Course Direction KTS MPH feet Rate Location/Type
07:26PM 43.5667 -71.4500 244° Southwest 184 212 2,100  Level KA90
07:27PM 43.5347 -71.5408 244° Southwest 207 238 5,900 2,820 Climbing Boston Center
07:28PM 43.5167 -71.6156 252° West 225 259 8,600 2,460 Climbing Boston Center
07:29PM 43.5089 -71.7303 265° West 262 302 10,900 1,860 Climbing Boston Center
07:30PM 43.5033 -71.8447 266° West 314 361 12,400 1,860 Climbing Boston Center
07:31PM 43.4956 -71.9794 265° West 341 392 14,700 2,160 Climbing Boston Center
07:32PM 43.4878 -72.1225 266° West 365 420 16,800 1,920 Climbing Boston Center
07:33PM 43.4797 -72.2683 266° West 385 443 18,600 1,680 Climbing Boston Center
07:34PM 43.4694 -72.4228 265° West 391 450 20,200 1,680 Climbing Boston Center
07:35PM 43.4589 -72.5831 265° West 411 473 22,000 1,740 Climbing Boston Center
07:36PM 43.4461 -72.7747 265° West 424 488 24,100 1,500 Climbing Boston Center
07:37PM 43.4350 -72.9433 265° West 430 495 25,400 1,200 Climbing Boston Center
07:38PM 43.4194 -73.1289 263° West 443 510 26,500 1,080 Climbing Boston Center
07:39PM 43.4078 -73.3089 265° West 458 527 27,600 1,080 Climbing Boston Center
07:40PM 43.3917 -73.4886 263° West 470 541 28,700 1,200 Climbing Boston Center
07:41PM 43.3775 -73.6742 264° West 481 554 30,100 1,260 Climbing Boston Center
07:42PM 43.3650 -73.8394 264° West 486 559 31,300 1,320 Climbing Boston Center
07:43PM 43.3503 -74.0219 264° West 491 565 32,800 1,560 Climbing Boston Center
07:44PM 43.3392 -74.2072 265° West 491 565 34,500 1,800 Climbing Boston Center
07:45PM 43.3239 -74.3836 263° West 486 559 36,400 1,800 Climbing Boston Center
07:46PM 43.3081 -74.5631 263° West 481 554 38,100 1,560 Climbing Boston Center
07:47PM 43.2942 -74.7364 264° West 475 547 39,600 900 Climbing Boston Center
07:48PM 43.2781 -74.9128 263° West 475 547 40,000 180 Climbing Boston Center
07:49PM 43.2594 -75.0917 262° West 475 547 40,000  Level Boston Center
07:50PM 43.2361 -75.2844 261° West 489 563 40,000  Level Boston Center
07:51PM 43.1897 -75.4644 251° West 508 585 40,000  Level Boston Center
07:54PM 43.0883 -75.8919 252° West 479 551 40,000  Level Cleveland Center
07:55PM 43.0453 -76.0656 251° West 490 564 40,000  Level Cleveland Center
07:56PM 43.0019 -76.2419 251° West 490 564 40,000  Level Cleveland Center
07:57PM 42.9603 -76.4153 252° West 490 564 40,000  Level Cleveland Center
07:58PM 42.9167 -76.5939 252° West 490 564 40,000  Level Cleveland Center
07:59PM 42.8744 -76.7667 252° West 490 564 40,000  Level Cleveland Center
08:00PM 42.8428 -76.9444 256° West 490 564 40,000  Level Cleveland Center
08:01PM 42.8150 -77.1272 258° West 490 564 40,000  Level Cleveland Center
08:02PM 42.7867 -77.3042 258° West 490 564 40,000  Level Cleveland Center
08:03PM 42.7603 -77.4808 259° West 485 558 40,000  Level Cleveland Center
08:04PM 42.7256 -77.6636 256° West 485 558 40,000  Level Cleveland Center
08:05PM 42.7047 -77.8311 260° West 493 567 40,000  Level Cleveland Center
08:06PM 42.6733 -78.0047 256° West 488 562 40,000  Level Cleveland Center
08:07PM 42.6436 -78.1783 257° West 482 555 40,000  Level Cleveland Center
08:08PM 42.6139 -78.3544 257° West 482 555 40,000  Level Cleveland Center
08:09PM 42.5836 -78.5303 257° West 482 555 40,000  Level Cleveland Center
08:10PM 42.5556 -78.7058 258° West 477 549 40,000  Level Cleveland Center
08:11PM 42.5228 -78.8789 256° West 477 549 40,000  Level Cleveland Center
08:12PM 42.4919 -79.0569 257° West 477 549 40,000  Level Cleveland Center
08:13PM 42.4547 -79.2522 256° West 477 549 40,000  Level Cleveland Center
08:14PM 42.4233 -79.4300 257° West 483 556 40,000  Level Cleveland Center
08:15PM 42.3914 -79.6106 257° West 483 556 40,000  Level Cleveland Center
08:16PM 42.3575 -79.7908 256° West 489 563 40,000  Level Cleveland Center
08:17PM 42.3231 -79.9681 255° West 489 563 40,000  Level Cleveland Center
08:18PM 42.2947 -80.1311 257° West 489 563 40,000  Level Cleveland Center
08:19PM 42.2619 -80.3111 256° West 489 563 40,000  Level Cleveland Center
08:20PM 42.2247 -80.5047 256° West 489 563 40,000  Level Cleveland Center
08:21PM 42.1892 -80.6814 255° West 489 563 40,000  Level Cleveland Center
08:22PM 42.1556 -80.8578 256° West 489 563 40,000  Level Cleveland Center
08:23PM 42.1217 -81.0394 256° West 494 568 40,000  Level Cleveland Center
08:24PM 42.0875 -81.2097 255° West 487 560 40,000  Level Cleveland Center
08:25PM 42.0508 -81.3886 255° West 487 560 40,000  Level Cleveland Center
08:26PM 42.0161 -81.5642 255° West 487 560 40,000  Level Cleveland Center
08:27PM 41.9814 -81.7339 255° West 487 560 40,000  Level Cleveland Center
08:28PM 41.9461 -81.9092 255° West 487 560 40,000  Level Cleveland Center
08:29PM 41.9128 -82.0758 255° West 482 555 40,000  Level Cleveland Center
08:30PM 41.8728 -82.2422 252° West 475 547 40,000  Level Cleveland Center
08:31PM 41.8369 -82.4169 255° West 475 547 40,000  Level Cleveland Center
08:32PM 41.8006 -82.5914 254° West 475 547 40,000  Level Cleveland Center
08:33PM 41.7642 -82.7628 254° West 475 547 40,000  Level Cleveland Center
08:34PM 41.7319 -82.9147 254° West 475 547 40,000  Level Cleveland Center
08:35PM 41.6950 -83.0889 254° West 475 547 40,000 -480 Level Cleveland Center
08:36PM 41.6556 -83.2567 253° West 475 547 39,100 -1,200 Descending Cleveland Center
08:37PM 41.6181 -83.4275 254° West 475 547 37,700 -1,500 Descending Cleveland Center
08:38PM 41.5803 -83.6008 254° West 475 547 36,200 -3,900 Descending Cleveland Center
08:39PM 41.5444 -83.7683 254° West 475 547 30,000 -1,320 Descending Cleveland Center
08:39PM 41.5219 -83.8847 256° West 479 551 33,900 1,500 Climbing Chicago Center
08:41PM 41.4775 -84.0781 253° West 460 529 32,800 -1,020 Descending Chicago Center
08:42PM 41.4647 -84.2489 264° West 463 533 31,900 -840 Descending Chicago Center
08:43PM 41.4714 -84.4231 273° West 470 541 31,100 -840 Descending Chicago Center
08:44PM 41.4789 -84.5997 273° West 476 548 30,200 -540 Descending Chicago Center
08:45PM 41.4850 -84.7725 273° West 471 542 30,000 -1,080 Descending Chicago Center
08:46PM 41.4914 -84.9444 273° West 467 537 28,000 -2,640 Descending Chicago Center
08:47PM 41.4983 -85.1411 273° West 446 513 24,600 -1,980 Descending Chicago Center
08:48PM 41.5028 -85.3008 272° West 429 494 24,000 -300 Descending Chicago Center
08:49PM 41.5061 -85.4692 272° West 437 503 24,000 -1,260 Level Chicago Center
08:50PM 41.5131 -85.6317 273° West 433 498 21,400 -2,400 Descending Chicago Center
08:51PM 41.5178 -85.7903 272° West 427 491 19,100 -2,040 Descending Chicago Center
08:52PM 41.5219 -85.9375 272° West 404 465 17,300 -1,920 Descending Chicago Center
08:53PM 41.5244 -86.0819 271° West 396 456 15,200 -1,980 Descending Chicago Center
08:54PM 41.5236 -86.2200 270° West 380 437 13,200 -1,920 Descending Chicago Center
08:55PM 41.5231 -86.3561 270° West 371 427 11,300 -1,500 Descending Chicago Center
08:56PM 41.5219 -86.5114 270° West 354 407 10,200 -660 Descending Chicago Center
08:57PM 41.5206 -86.6378 269° West 348 400 10,000 -420 Descending Chicago Center
08:58PM 41.5203 -86.7589 270° West 333 383 9,400 -780 Descending Chicago Center
08:59PM 41.5233 -86.8642 272° West 292 336 8,500 -960 Descending Chicago Center
09:00PM 41.5189 -86.9906 267° West 286 329 7,400 -960 Descending Chicago Center
09:01PM 41.5172 -87.0944 269° West 282 325 6,500 -1,140 Descending Chicago Center
09:02PM 41.5217 -87.1967 273° West 279 321 5,100 -1,260 Descending Chicago Center
09:03PM 41.5317 -87.2983 278° West 278 320 3,900 -540 Descending Chicago Center
09:04PM 41.5414 -87.4019 277° West 282 325 4,000  Climbing Chicago Center
09:05PM 41.5506 -87.5244 276° West 280 322 4,000  Level Chicago Center
09:06PM 41.5603 -87.6269 277° West 280 322 4,000 -360 Level Chicago Center
09:07PM 41.5697 -87.7281 277° West 280 322 3,300 -540 Descending Chicago Center
09:08PM 41.5758 -87.8242 275° West 271 312 3,000 -180 Descending Chicago Center
09:09PM 41.5886 -87.9167 280° West 233 268 3,000  Level Chicago Center
09:11PM 41.6344 -87.9353 343° North 202 232 3,000  Level Chicago Center
09:12PM 41.6744 -87.8961 36° Northeast 184 212 3,000 -240 Level Chicago Center
09:13PM 41.7083 -87.8503 45° Northeast 179 206 2,600 -600 Descending Chicago Center
09:14PM 41.7381 -87.8128 43° Northeast 164 189 1,800 -780 Descending Chicago Center
09:15PM 41.7653 -87.7786 43° Northeast 146 168 1,000 -780 Descending Chicago Center